Parrish, Florida
Current Conditions -  °F | °C
As of 7:53 AM on Thursday 30 Oct 2014 (Local Time) from KSRQ Reporting Station
Overcast Overcast  
Wind Chill: 68°   Ceiling: 11000
Heat Index: 68°   Visibility: 10mi
Dew Point: 65°   Wind: 3mph
Humidity: 90%   Direction: 110°ESE
Pressure: 29.95"   Gusts: NA
Location:  27.59°N, 82.42°W
Report Text: KSRQ 301153Z AUTO 11003KT 10SM OVC110 20/18 A2995 RMK AO2 SLP141 T02000183 10211 20189 53001
Loading
Personal Weather Stations






























Interactive Weather Map
Tropical Storm Tracking
New forecast layout! Learn more

10-Day Weather Forecast

Advertisements
Track Severe Weather on mobile